createdAt,value
2018-12-13T00:00:39.317Z,35.80
2018-12-13T00:01:39.263Z,35.99
2018-12-13T00:02:39.248Z,35.99
2018-12-13T00:03:39.227Z,35.89
2018-12-13T00:04:39.211Z,35.89
2018-12-13T00:05:39.198Z,35.99
2018-12-13T00:06:39.212Z,35.69
2018-12-13T00:07:39.202Z,36.10
2018-12-13T00:08:39.168Z,35.89
2018-12-13T00:09:39.156Z,35.99
2018-12-13T00:10:39.152Z,35.89
2018-12-13T00:11:39.173Z,35.89
2018-12-13T00:12:39.144Z,35.60
2018-12-13T00:13:39.118Z,35.80
2018-12-13T00:14:39.106Z,35.80
2018-12-13T00:15:39.114Z,35.89
2018-12-13T00:16:39.621Z,35.69
2018-12-13T00:17:39.303Z,36.19
2018-12-13T00:18:39.055Z,36.19
2018-12-13T00:19:39.622Z,36.29
2018-12-13T00:20:39.040Z,36.29
2018-12-13T00:21:39.024Z,35.99
2018-12-13T00:22:39.143Z,35.89
2018-12-13T00:23:39.005Z,35.89
2018-12-13T00:24:38.992Z,35.99
2018-12-13T00:25:38.985Z,35.89
2018-12-13T00:26:38.967Z,35.89
2018-12-13T00:27:38.979Z,35.69
2018-12-13T00:28:39.624Z,35.69
2018-12-13T00:29:39.684Z,35.89
2018-12-13T00:30:39.669Z,35.89
2018-12-13T00:31:39.720Z,35.89
2018-12-13T00:32:39.200Z,36.19
2018-12-13T00:33:39.656Z,35.80
2018-12-13T00:34:39.653Z,35.99
2018-12-13T00:35:39.638Z,35.80
2018-12-13T00:36:39.829Z,35.80
2018-12-13T00:37:38.881Z,35.99
2018-12-13T00:38:38.843Z,35.99
2018-12-13T00:39:38.832Z,35.89
2018-12-13T00:40:38.869Z,35.89
2018-12-13T00:41:38.860Z,35.99
2018-12-13T00:42:38.899Z,35.80
2018-12-13T00:43:38.802Z,35.89
2018-12-13T00:44:38.774Z,35.99
2018-12-13T00:45:38.768Z,35.60
2018-12-13T00:46:38.755Z,35.80
2018-12-13T00:47:38.763Z,35.80
2018-12-13T00:48:38.732Z,35.60
2018-12-13T00:49:38.720Z,35.80
2018-12-13T00:50:39.630Z,35.99
2018-12-13T00:51:39.671Z,35.60
2018-12-13T00:52:39.281Z,35.69
2018-12-13T00:53:39.680Z,35.80
2018-12-13T00:54:39.649Z,35.60
2018-12-13T00:55:39.633Z,35.60
2018-12-13T00:56:39.624Z,35.49
2018-12-13T00:57:39.169Z,35.80
2018-12-13T00:58:38.626Z,35.60
2018-12-13T00:59:39.138Z,35.39
2018-12-13T01:00:39.126Z,35.78
2018-12-13T01:01:39.125Z,35.78
2018-12-13T01:02:38.593Z,35.58
2018-12-13T01:03:38.571Z,35.69
2018-12-13T01:04:38.560Z,35.60
2018-12-13T01:05:39.130Z,35.69
2018-12-13T01:06:39.130Z,35.60
2018-12-13T01:07:38.642Z,35.68
2018-12-13T01:08:39.164Z,35.69
2018-12-13T01:09:39.130Z,35.69
2018-12-13T01:10:39.126Z,35.60
2018-12-13T01:11:39.128Z,35.89
2018-12-13T01:12:38.643Z,35.99
2018-12-13T01:13:39.130Z,35.80
2018-12-13T01:14:39.123Z,35.89
2018-12-13T01:15:38.445Z,35.69
2018-12-13T01:16:38.429Z,35.80
2018-12-13T01:17:38.657Z,35.80
2018-12-13T01:18:38.416Z,35.69
2018-12-13T01:19:38.397Z,36.19
2018-12-13T01:20:38.397Z,36.29
2018-12-13T01:21:38.381Z,35.89
2018-12-13T01:22:38.386Z,35.60
2018-12-13T01:23:39.146Z,36.19
2018-12-13T01:24:38.344Z,35.80
2018-12-13T01:25:38.340Z,35.80
2018-12-13T01:26:38.340Z,35.69
2018-12-13T01:27:38.388Z,35.89
2018-12-13T01:28:38.315Z,35.89
2018-12-13T01:29:39.132Z,36.19
2018-12-13T01:30:39.173Z,35.30
2018-12-13T01:31:39.136Z,35.69
2018-12-13T01:32:38.676Z,35.69
2018-12-13T01:33:39.236Z,35.69
2018-12-13T01:34:39.132Z,35.69
2018-12-13T01:35:39.137Z,35.60
2018-12-13T01:36:38.217Z,35.60
2018-12-13T01:37:38.220Z,35.80
2018-12-13T01:38:39.133Z,35.80
2018-12-13T01:39:39.157Z,35.89
2018-12-13T01:40:38.180Z,35.80
2018-12-13T01:41:39.160Z,35.89
2018-12-13T01:42:38.642Z,35.80
2018-12-13T01:43:38.138Z,35.89
2018-12-13T01:44:38.231Z,35.80
2018-12-13T01:45:38.630Z,35.80
2018-12-13T01:46:38.628Z,35.69
2018-12-13T01:47:38.129Z,35.60
2018-12-13T01:48:38.631Z,35.80
2018-12-13T01:49:38.743Z,35.80
2018-12-13T01:50:38.647Z,36.19
2018-12-13T01:51:38.687Z,35.49
2018-12-13T01:52:38.122Z,35.89
2018-12-13T01:53:38.033Z,35.69
2018-12-13T01:54:38.036Z,35.89
2018-12-13T01:55:38.011Z,35.89
2018-12-13T01:56:38.002Z,35.80
2018-12-13T01:57:38.003Z,35.80
2018-12-13T01:58:37.981Z,35.69
2018-12-13T01:59:37.980Z,35.69
2018-12-13T02:00:37.959Z,35.69
2018-12-13T02:01:37.948Z,35.80
2018-12-13T02:02:37.950Z,35.69
2018-12-13T02:03:37.928Z,35.69
2018-12-13T02:04:37.934Z,35.60
2018-12-13T02:05:37.907Z,35.80
2018-12-13T02:06:37.894Z,35.80
2018-12-13T02:07:37.899Z,35.69
2018-12-13T02:08:38.641Z,35.89
2018-12-13T02:09:37.949Z,35.89
2018-12-13T02:10:37.852Z,35.99
2018-12-13T02:11:37.837Z,35.69
2018-12-13T02:12:38.149Z,35.69
2018-12-13T02:13:37.820Z,35.80
2018-12-13T02:14:37.827Z,35.80
2018-12-13T02:15:38.630Z,35.99
2018-12-13T02:16:37.785Z,35.80
2018-12-13T02:17:38.142Z,35.80
2018-12-13T02:18:37.766Z,35.89
2018-12-13T02:19:37.765Z,35.69
2018-12-13T02:20:38.637Z,35.69
2018-12-13T02:21:37.729Z,35.89
2018-12-13T02:22:38.632Z,35.69
2018-12-13T02:23:38.148Z,35.80
2018-12-13T02:24:37.791Z,36.19
2018-12-13T02:25:37.687Z,36.19
2018-12-13T02:26:37.679Z,35.80
2018-12-13T02:27:37.667Z,36.29
2018-12-13T02:28:38.171Z,36.19
2018-12-13T02:29:38.645Z,35.80
2018-12-13T02:30:37.720Z,36.19
2018-12-13T02:31:38.131Z,35.99
2018-12-13T02:32:37.613Z,35.99
2018-12-13T02:33:37.657Z,35.99
2018-12-13T02:34:38.135Z,36.19
2018-12-13T02:35:38.145Z,35.99
2018-12-13T02:36:38.131Z,35.89
2018-12-13T02:37:38.149Z,35.99
2018-12-13T02:38:37.564Z,35.99
2018-12-13T02:39:38.145Z,36.10
2018-12-13T02:40:37.562Z,36.19
2018-12-13T02:41:38.127Z,35.80
2018-12-13T02:42:37.516Z,36.10
2018-12-13T02:43:37.565Z,36.10
2018-12-13T02:44:38.138Z,35.60
2018-12-13T02:45:37.471Z,36.10
2018-12-13T02:46:38.131Z,36.10
2018-12-13T02:47:37.461Z,36.10
2018-12-13T02:48:37.462Z,36.10
2018-12-13T02:49:37.427Z,36.10
2018-12-13T02:50:38.140Z,36.10
2018-12-13T02:51:38.171Z,35.99
2018-12-13T02:52:38.160Z,35.99
2018-12-13T02:53:37.762Z,36.10
2018-12-13T02:54:38.250Z,36.10
2018-12-13T02:55:38.204Z,35.60
2018-12-13T02:56:38.166Z,36.10
2018-12-13T02:57:38.164Z,35.89
2018-12-13T02:58:37.675Z,35.60
2018-12-13T02:59:38.147Z,35.80
2018-12-13T03:00:37.307Z,35.60
2018-12-13T03:01:37.316Z,35.99
2018-12-13T03:02:37.287Z,35.80
2018-12-13T03:03:37.299Z,35.30
2018-12-13T03:04:37.276Z,35.49
2018-12-13T03:05:37.258Z,35.30
2018-12-13T03:06:37.281Z,35.60
2018-12-13T03:07:38.149Z,35.80
2018-12-13T03:08:37.652Z,35.80
2018-12-13T03:09:37.216Z,35.49
2018-12-13T03:10:37.202Z,35.30
2018-12-13T03:11:37.204Z,35.80
2018-12-13T03:12:37.175Z,35.89
2018-12-13T03:13:37.183Z,35.89
2018-12-13T03:14:38.135Z,35.30
2018-12-13T03:15:38.133Z,34.99
2018-12-13T03:16:37.160Z,35.30
2018-12-13T03:17:37.123Z,35.30
2018-12-13T03:18:37.125Z,35.80
2018-12-13T03:19:37.095Z,35.89
2018-12-13T03:20:37.636Z,35.89
2018-12-13T03:21:37.105Z,35.80
2018-12-13T03:22:37.072Z,35.80
2018-12-13T03:23:37.070Z,35.69
2018-12-13T03:24:37.639Z,35.89
2018-12-13T03:25:37.040Z,35.80
2018-12-13T03:26:37.720Z,35.69
2018-12-13T03:27:37.646Z,35.89
2018-12-13T03:28:37.146Z,35.80
2018-12-13T03:29:37.658Z,35.89
2018-12-13T03:30:37.657Z,35.80
2018-12-13T03:31:36.987Z,35.80
2018-12-13T03:32:37.649Z,35.89
2018-12-13T03:33:36.972Z,35.10
2018-12-13T03:34:36.936Z,34.99
2018-12-13T03:35:37.635Z,35.10
2018-12-13T03:36:36.915Z,34.99
2018-12-13T03:37:36.960Z,34.99
2018-12-13T03:38:36.915Z,35.89
2018-12-13T03:39:37.648Z,34.99
2018-12-13T03:40:36.871Z,35.80
2018-12-13T03:41:37.648Z,35.10
2018-12-13T03:42:37.696Z,34.99
2018-12-13T03:43:37.145Z,35.49
2018-12-13T03:44:37.643Z,35.69
2018-12-13T03:45:37.648Z,35.10
2018-12-13T03:46:37.637Z,35.89
2018-12-13T03:47:37.733Z,35.80
2018-12-13T03:48:37.179Z,35.39
2018-12-13T03:49:37.635Z,35.10
2018-12-13T03:50:37.634Z,34.99
2018-12-13T03:51:37.673Z,34.89
2018-12-13T03:52:37.634Z,35.49
2018-12-13T03:53:36.751Z,35.39
2018-12-13T03:54:37.641Z,35.39
2018-12-13T03:55:37.638Z,35.30
2018-12-13T03:56:36.695Z,35.39
2018-12-13T03:57:36.697Z,35.39
2018-12-13T03:58:37.162Z,35.39
2018-12-13T03:59:37.642Z,35.39
2018-12-13T04:00:37.660Z,35.30
2018-12-13T04:01:37.183Z,35.30
2018-12-13T04:02:37.138Z,35.30
2018-12-13T04:03:36.646Z,35.30
2018-12-13T04:04:36.601Z,35.30
2018-12-13T04:05:37.148Z,35.30
2018-12-13T04:06:37.163Z,35.30
2018-12-13T04:07:37.141Z,35.30
2018-12-13T04:08:36.580Z,34.99
2018-12-13T04:09:37.142Z,35.10
2018-12-13T04:10:36.544Z,35.19
2018-12-13T04:11:36.526Z,35.19
2018-12-13T04:12:36.516Z,35.19
2018-12-13T04:13:36.526Z,34.99
2018-12-13T04:14:37.137Z,35.10
2018-12-13T04:15:36.480Z,35.19
2018-12-13T04:16:36.467Z,35.10
2018-12-13T04:17:37.135Z,34.99
2018-12-13T04:18:36.653Z,35.19
2018-12-13T04:19:36.443Z,35.30
2018-12-13T04:20:36.433Z,35.19
2018-12-13T04:21:37.144Z,35.30
2018-12-13T04:22:37.137Z,34.99
2018-12-13T04:23:36.409Z,35.39
2018-12-13T04:24:36.386Z,35.10
2018-12-13T04:25:36.369Z,35.30
2018-12-13T04:26:37.137Z,35.10
2018-12-13T04:27:37.144Z,35.19
2018-12-13T04:28:37.167Z,35.19
2018-12-13T04:29:36.340Z,35.30
2018-12-13T04:30:37.167Z,35.19
2018-12-13T04:31:37.162Z,35.61
2018-12-13T04:32:37.136Z,35.19
2018-12-13T04:33:36.289Z,35.30
2018-12-13T04:34:36.654Z,35.39
2018-12-13T04:35:37.139Z,35.19
2018-12-13T04:36:37.147Z,35.60
2018-12-13T04:37:37.195Z,35.19
2018-12-13T04:38:37.213Z,35.60
2018-12-13T04:39:36.706Z,35.80
2018-12-13T04:40:36.212Z,35.49
2018-12-13T04:41:36.197Z,35.49
2018-12-13T04:42:36.193Z,35.39
2018-12-13T04:43:36.175Z,35.39
2018-12-13T04:44:37.834Z,35.30
2018-12-13T04:45:36.155Z,35.49
2018-12-13T04:46:36.154Z,35.80
2018-12-13T04:47:36.139Z,35.81
2018-12-13T04:48:36.134Z,35.80
2018-12-13T04:49:36.639Z,35.69
2018-12-13T04:50:36.640Z,35.69
2018-12-13T04:51:36.670Z,35.80
2018-12-13T04:52:36.680Z,35.49
2018-12-13T04:53:36.646Z,35.69
2018-12-13T04:54:36.077Z,35.69
2018-12-13T04:55:36.646Z,35.69
2018-12-13T04:56:36.640Z,35.60
2018-12-13T04:57:36.027Z,35.49
2018-12-13T04:58:36.650Z,35.30
2018-12-13T04:59:36.043Z,35.39
2018-12-13T05:00:35.988Z,35.60
2018-12-13T05:01:36.659Z,35.30
2018-12-13T05:02:36.638Z,35.60
2018-12-13T05:03:36.673Z,35.39
2018-12-13T05:04:36.161Z,35.60
2018-12-13T05:05:36.698Z,35.60
2018-12-13T05:06:35.931Z,35.49
2018-12-13T05:07:41.495Z,35.39
2018-12-13T05:08:35.902Z,35.49
2018-12-13T05:09:36.652Z,35.49
2018-12-13T05:10:35.887Z,34.69
2018-12-13T05:11:36.638Z,34.80
2018-12-13T05:12:36.643Z,34.59
2018-12-13T05:13:35.850Z,34.61
2018-12-13T05:14:35.858Z,35.39
2018-12-13T05:15:35.828Z,34.69
2018-12-13T05:16:35.816Z,34.69
2018-12-13T05:17:35.826Z,34.59
2018-12-13T05:18:36.667Z,35.39
2018-12-13T05:19:36.162Z,35.39
2018-12-13T05:20:36.646Z,35.39
2018-12-13T05:21:35.768Z,34.59
2018-12-13T05:22:36.641Z,35.39
2018-12-13T05:23:35.739Z,34.59
2018-12-13T05:24:36.155Z,34.50
2018-12-13T05:25:36.647Z,34.80
2018-12-13T05:26:36.646Z,34.59
2018-12-13T05:27:36.641Z,35.19
2018-12-13T05:28:35.706Z,34.59
2018-12-13T05:29:36.165Z,35.39
2018-12-13T05:30:36.640Z,34.81
2018-12-13T05:31:36.718Z,34.80
2018-12-13T05:32:36.676Z,34.69
2018-12-13T05:33:36.140Z,34.50
2018-12-13T05:34:35.665Z,34.80
2018-12-13T05:35:36.163Z,34.80
2018-12-13T05:36:36.166Z,34.80
2018-12-13T05:37:36.173Z,35.39
2018-12-13T05:38:36.194Z,35.39
2018-12-13T05:39:35.699Z,34.69
2018-12-13T05:40:36.146Z,34.69
2018-12-13T05:41:36.149Z,35.60
2018-12-13T05:42:36.144Z,34.69
2018-12-13T05:43:36.215Z,34.59
2018-12-13T05:44:35.662Z,34.81
2018-12-13T05:45:36.150Z,35.39
2018-12-13T05:46:35.496Z,34.80
2018-12-13T05:47:36.145Z,35.39
2018-12-13T05:48:35.494Z,35.39
2018-12-13T05:49:35.496Z,35.30
2018-12-13T05:50:36.153Z,34.69
2018-12-13T05:51:36.181Z,34.89
2018-12-13T05:52:36.212Z,34.89
2018-12-13T05:53:36.185Z,35.10
2018-12-13T05:54:35.668Z,35.01
2018-12-13T05:55:36.157Z,35.49
2018-12-13T05:56:36.147Z,34.89
2018-12-13T05:57:36.150Z,34.80
2018-12-13T05:58:36.151Z,34.99
2018-12-13T05:59:35.370Z,34.99
2018-12-13T06:00:36.145Z,34.99
2018-12-13T06:01:35.342Z,35.39
2018-12-13T06:02:35.330Z,35.39
2018-12-13T06:03:36.143Z,34.80
2018-12-13T06:04:35.342Z,35.39
2018-12-13T06:05:35.305Z,35.91
2018-12-13T06:06:36.151Z,35.10
2018-12-13T06:07:36.145Z,34.99
2018-12-13T06:08:36.142Z,35.60
2018-12-13T06:09:35.273Z,34.69
2018-12-13T06:10:36.144Z,35.39
2018-12-13T06:11:35.235Z,35.39
2018-12-13T06:12:36.147Z,34.80
2018-12-13T06:13:36.150Z,34.69
2018-12-13T06:14:35.212Z,35.39
2018-12-13T06:15:35.184Z,35.60
2018-12-13T06:16:35.173Z,34.71
2018-12-13T06:17:35.167Z,35.39
2018-12-13T06:18:35.152Z,35.30
2018-12-13T06:19:35.180Z,35.30
2018-12-13T06:20:35.136Z,34.39
2018-12-13T06:21:37.038Z,35.31
2018-12-13T06:22:35.112Z,35.11
2018-12-13T06:23:35.098Z,35.30
2018-12-13T06:24:35.109Z,34.69
2018-12-13T06:25:35.088Z,34.39
2018-12-13T06:26:35.655Z,35.61
2018-12-13T06:27:35.064Z,34.39
2018-12-13T06:28:35.660Z,35.60
2018-12-13T06:29:41.673Z,36.01
2018-12-13T06:30:35.055Z,35.89
2018-12-13T06:31:35.695Z,35.39
2018-12-13T06:32:35.807Z,35.39
2018-12-13T06:33:35.828Z,35.89
2018-12-13T06:34:35.114Z,34.69
2018-12-13T06:35:35.673Z,35.39
2018-12-13T06:36:34.976Z,35.89
2018-12-13T06:37:34.948Z,35.69
2018-12-13T06:38:34.947Z,34.39
2018-12-13T06:39:34.937Z,35.39
2018-12-13T06:40:34.946Z,35.81
2018-12-13T06:41:34.916Z,35.39
2018-12-13T06:42:34.891Z,35.39
2018-12-13T06:43:34.888Z,35.41
2018-12-13T06:44:34.872Z,35.39
2018-12-13T06:45:34.875Z,35.30
2018-12-13T06:46:34.852Z,35.30
2018-12-13T06:47:34.838Z,35.19
2018-12-13T06:48:34.826Z,35.19
2018-12-13T06:49:34.816Z,34.50
2018-12-13T06:50:34.831Z,35.10
2018-12-13T06:51:34.816Z,35.30
2018-12-13T06:52:35.671Z,35.19
2018-12-13T06:53:34.795Z,35.60
2018-12-13T06:54:34.776Z,35.39
2018-12-13T06:55:34.786Z,35.19
2018-12-13T06:56:34.786Z,34.50
2018-12-13T06:57:34.733Z,35.19
2018-12-13T06:58:34.768Z,35.19
2018-12-13T06:59:34.716Z,35.19
2018-12-13T07:00:34.708Z,35.10
2018-12-13T07:01:34.687Z,35.19
2018-12-13T07:02:34.675Z,35.39
2018-12-13T07:03:34.664Z,35.39
2018-12-13T07:04:34.660Z,35.39
2018-12-13T07:05:34.702Z,35.80
2018-12-13T07:06:34.678Z,35.99
2018-12-13T07:07:34.622Z,34.30
2018-12-13T07:08:34.610Z,34.71
2018-12-13T07:09:34.612Z,34.89
2018-12-13T07:10:34.606Z,34.89
2018-12-13T07:11:34.574Z,34.99
2018-12-13T07:12:34.569Z,35.60
2018-12-13T07:13:35.152Z,35.60
2018-12-13T07:14:35.193Z,34.69
2018-12-13T07:15:34.548Z,34.59
2018-12-13T07:16:35.182Z,34.50
2018-12-13T07:17:35.152Z,35.69
2018-12-13T07:18:35.150Z,35.30
2018-12-13T07:19:34.581Z,35.60
2018-12-13T07:20:34.677Z,35.39
2018-12-13T07:21:35.152Z,35.10
2018-12-13T07:22:35.172Z,35.19
2018-12-13T07:23:34.448Z,35.19
2018-12-13T07:24:34.460Z,35.19
2018-12-13T07:25:34.457Z,35.19
2018-12-13T07:26:35.209Z,35.19
2018-12-13T07:27:35.160Z,35.10
2018-12-13T07:28:34.454Z,35.19
2018-12-13T07:29:35.246Z,35.30
2018-12-13T07:30:34.456Z,35.10
2018-12-13T07:31:34.406Z,35.30
2018-12-13T07:32:34.413Z,35.19
2018-12-13T07:33:34.350Z,35.30
2018-12-13T07:34:34.325Z,35.60
2018-12-13T07:35:34.333Z,35.30
2018-12-13T07:36:34.304Z,35.69
2018-12-13T07:37:34.294Z,35.60
2018-12-13T07:38:34.281Z,35.49
2018-12-13T07:39:34.268Z,35.69
2018-12-13T07:40:34.663Z,35.60
2018-12-13T07:41:35.166Z,35.60
2018-12-13T07:42:35.165Z,35.39
2018-12-13T07:43:35.159Z,35.80
2018-12-13T07:44:35.148Z,35.49
2018-12-13T07:45:34.663Z,35.39
2018-12-13T07:46:35.208Z,35.39
2018-12-13T07:47:34.187Z,35.30
2018-12-13T07:48:35.194Z,35.10
2018-12-13T07:49:34.160Z,35.30
2018-12-13T07:50:34.162Z,36.19
2018-12-13T07:51:34.147Z,34.99
2018-12-13T07:52:34.649Z,35.99
2018-12-13T07:53:34.763Z,35.80
2018-12-13T07:54:34.125Z,35.80
2018-12-13T07:55:34.306Z,35.60
2018-12-13T07:56:34.842Z,35.80
2018-12-13T07:57:34.733Z,35.60
2018-12-13T07:58:34.723Z,36.29
2018-12-13T07:59:34.067Z,36.19
2018-12-13T08:00:34.051Z,36.49
2018-12-13T08:01:34.027Z,36.60
2018-12-13T08:02:34.016Z,36.79
2018-12-13T08:03:34.007Z,36.69
2018-12-13T08:04:33.996Z,36.69
2018-12-13T08:05:34.166Z,36.49
2018-12-13T08:06:33.979Z,36.40
2018-12-13T08:07:35.481Z,36.40
2018-12-13T08:08:33.959Z,36.40
2018-12-13T08:09:33.949Z,36.49
2018-12-13T08:10:34.684Z,36.40
2018-12-13T08:11:33.921Z,36.69
2018-12-13T08:12:33.930Z,36.69
2018-12-13T08:13:33.901Z,36.40
2018-12-13T08:14:34.653Z,36.60
2018-12-13T08:15:33.901Z,36.49
2018-12-13T08:16:33.866Z,36.40
2018-12-13T08:17:33.862Z,36.40
2018-12-13T08:18:34.658Z,35.99
2018-12-13T08:19:33.831Z,36.19
2018-12-13T08:20:34.168Z,36.29
2018-12-13T08:21:33.813Z,35.80
2018-12-13T08:22:34.658Z,35.89
2018-12-13T08:23:33.801Z,36.40
2018-12-13T08:24:34.837Z,35.99
2018-12-13T08:25:34.255Z,36.29
2018-12-13T08:26:34.819Z,36.10
2018-12-13T08:27:33.783Z,35.60
2018-12-13T08:28:33.851Z,35.60
2018-12-13T08:29:33.847Z,35.69
2018-12-13T08:30:33.821Z,35.69
2018-12-13T08:31:33.711Z,35.30
2018-12-13T08:32:33.697Z,36.10
2018-12-13T08:33:33.693Z,35.39
2018-12-13T08:34:33.686Z,34.89
2018-12-13T08:35:33.699Z,35.19
2018-12-13T08:36:33.652Z,34.99
2018-12-13T08:37:33.655Z,35.39
2018-12-13T08:38:33.645Z,35.19
2018-12-13T08:39:33.617Z,35.39
2018-12-13T08:40:33.627Z,35.19
2018-12-13T08:41:33.596Z,35.19
2018-12-13T08:42:33.588Z,34.69
2018-12-13T08:43:33.573Z,34.99
2018-12-13T08:44:33.574Z,35.60
2018-12-13T08:45:33.561Z,35.10
2018-12-13T08:46:36.476Z,35.60
2018-12-13T08:47:33.538Z,35.99
2018-12-13T08:48:33.524Z,35.69
2018-12-13T08:49:33.515Z,35.80
2018-12-13T08:50:34.735Z,35.89
2018-12-13T08:51:33.593Z,35.69
2018-12-13T08:52:33.500Z,35.80
2018-12-13T08:53:33.467Z,35.69
2018-12-13T08:54:33.457Z,35.80
2018-12-13T08:55:33.461Z,35.39
2018-12-13T08:56:33.462Z,35.99
2018-12-13T08:57:34.162Z,35.80
2018-12-13T08:58:33.492Z,35.28
2018-12-13T08:59:34.374Z,35.38
2018-12-13T09:00:34.217Z,34.98
2018-12-13T09:01:33.668Z,35.78
2018-12-13T09:02:34.223Z,34.98
2018-12-13T09:03:33.363Z,35.78
2018-12-13T09:04:33.357Z,35.96
2018-12-13T09:05:34.220Z,35.88
2018-12-13T09:06:33.349Z,36.08
2018-12-13T09:07:34.162Z,36.16
2018-12-13T09:08:33.754Z,35.76
2018-12-13T09:09:33.300Z,35.76
2018-12-13T09:10:33.378Z,35.86
2018-12-13T09:11:33.294Z,35.66
2018-12-13T09:12:33.263Z,35.36
2018-12-13T09:13:34.157Z,35.76
2018-12-13T09:14:34.168Z,35.76
2018-12-13T09:15:34.151Z,36.26
2018-12-13T09:16:33.673Z,36.26
2018-12-13T09:17:34.159Z,35.66
2018-12-13T09:18:33.202Z,35.96
2018-12-13T09:19:34.178Z,36.36
2018-12-13T09:20:33.174Z,36.76
2018-12-13T09:21:34.186Z,36.56
2018-12-13T09:22:33.160Z,36.36
2018-12-13T09:23:33.180Z,36.06
2018-12-13T09:24:33.669Z,36.16
2018-12-13T09:25:33.134Z,36.16
2018-12-13T09:26:33.129Z,36.26
2018-12-13T09:27:33.684Z,36.16
2018-12-13T09:28:33.665Z,35.96
2018-12-13T09:29:33.713Z,35.76
2018-12-13T09:30:33.660Z,36.66
2018-12-13T09:31:33.090Z,36.46
2018-12-13T09:32:33.083Z,36.06
2018-12-13T09:33:33.658Z,36.26
2018-12-13T09:34:33.034Z,35.86
2018-12-13T09:35:33.018Z,35.86
2018-12-13T09:36:33.186Z,36.26
2018-12-13T09:37:33.655Z,36.15
2018-12-13T09:38:39.707Z,36.86
2018-12-13T09:39:32.972Z,37.06
2018-12-13T09:40:32.959Z,36.96
2018-12-13T09:41:32.969Z,36.96
2018-12-13T09:42:33.658Z,36.76
2018-12-13T09:43:32.926Z,36.44
2018-12-13T09:44:32.927Z,36.84
2018-12-13T09:45:33.673Z,36.94
2018-12-13T09:46:33.178Z,36.46
2018-12-13T09:47:32.888Z,36.74
2018-12-13T09:48:32.873Z,35.76
2018-12-13T09:49:32.867Z,35.64
2018-12-13T09:50:32.873Z,36.36
2018-12-13T09:51:32.857Z,36.34
2018-12-13T09:52:32.835Z,36.16
2018-12-13T09:53:32.884Z,36.26
2018-12-13T09:54:33.665Z,36.15
2018-12-13T09:55:33.694Z,36.54
2018-12-13T09:56:33.204Z,36.15
2018-12-13T09:57:33.689Z,36.54
2018-12-13T09:58:33.658Z,37.16
2018-12-13T09:59:33.657Z,36.86
2018-12-13T10:00:33.663Z,36.84
2018-12-13T10:01:32.751Z,36.76
2018-12-13T10:02:32.725Z,36.96
2018-12-13T10:03:32.710Z,36.54
2018-12-13T10:04:33.672Z,36.64
2018-12-13T10:05:32.710Z,37.14
2018-12-13T10:06:32.717Z,36.54
2018-12-13T10:07:32.670Z,37.56
2018-12-13T10:08:33.170Z,37.46
2018-12-13T10:09:32.645Z,37.86
2018-12-13T10:10:32.664Z,36.16
2018-12-13T10:11:32.676Z,37.46
2018-12-13T10:12:33.171Z,37.46
2018-12-13T10:13:33.161Z,37.66
2018-12-13T10:14:33.171Z,37.76
2018-12-13T10:15:33.167Z,37.46
2018-12-13T10:16:32.701Z,37.86
2018-12-13T10:17:32.563Z,37.46
2018-12-13T10:18:33.185Z,37.74
2018-12-13T10:19:33.160Z,37.66
2018-12-13T10:20:33.176Z,37.64
2018-12-13T10:21:32.690Z,37.76
2018-12-13T10:22:33.164Z,37.86
2018-12-13T10:23:32.507Z,37.86
2018-12-13T10:24:32.497Z,37.74
2018-12-13T10:25:32.481Z,37.64
2018-12-13T10:26:32.808Z,38.14
2018-12-13T10:27:33.167Z,38.04
2018-12-13T10:28:33.165Z,37.74
2018-12-13T10:29:32.434Z,37.64
2018-12-13T10:30:32.426Z,36.74
2018-12-13T10:31:32.425Z,35.76
2018-12-13T10:32:32.413Z,34.55
2018-12-13T10:33:32.388Z,34.06
2018-12-13T10:34:33.167Z,34.06
2018-12-13T10:35:33.157Z,33.04
2018-12-13T10:36:32.400Z,33.47
2018-12-13T10:37:32.342Z,32.36
2018-12-13T10:38:33.208Z,32.67
2018-12-13T10:39:32.321Z,32.26
2018-12-13T10:40:32.315Z,32.06
2018-12-13T10:41:32.330Z,31.76
2018-12-13T10:42:32.294Z,31.46
2018-12-13T10:43:32.278Z,31.46
2018-12-13T10:44:33.175Z,31.76
2018-12-13T10:45:32.264Z,30.46
2018-12-13T10:46:32.701Z,30.96
2018-12-13T10:47:32.239Z,30.68
2018-12-13T10:48:33.160Z,30.68
2018-12-13T10:49:32.230Z,31.07
2018-12-13T10:50:32.201Z,30.66
2018-12-13T10:51:32.211Z,30.58
2018-12-13T10:52:33.194Z,30.18
2018-12-13T10:53:32.243Z,29.77
2018-12-13T10:54:32.165Z,29.28
2018-12-13T10:55:32.683Z,29.08
2018-12-13T10:56:32.148Z,29.18
2018-12-13T10:57:32.174Z,29.98
2018-12-13T10:58:32.258Z,29.58
2018-12-13T10:59:32.104Z,29.38
2018-12-13T11:00:32.095Z,29.58
2018-12-13T11:01:32.103Z,30.08
2018-12-13T11:02:32.184Z,29.88
2018-12-13T11:03:32.062Z,29.48
2018-12-13T11:04:32.050Z,29.88
2018-12-13T11:05:32.042Z,29.68
2018-12-13T11:06:32.670Z,29.39
2018-12-13T11:07:32.178Z,29.88
2018-12-13T11:08:32.665Z,29.58
2018-12-13T11:09:31.993Z,28.78
2018-12-13T11:10:31.986Z,29.18
2018-12-13T11:11:32.671Z,29.68
2018-12-13T11:12:31.985Z,29.68
2018-12-13T11:13:31.959Z,29.38
2018-12-13T11:14:31.965Z,29.38
2018-12-13T11:15:31.958Z,29.58
2018-12-13T11:16:31.930Z,29.78
2018-12-13T11:17:32.699Z,29.88
2018-12-13T11:18:31.901Z,29.17
2018-12-13T11:19:31.897Z,29.77
2018-12-13T11:20:32.660Z,29.27
2018-12-13T11:21:32.669Z,28.97
2018-12-13T11:22:31.874Z,28.47
2018-12-13T11:23:31.847Z,28.96
2018-12-13T11:24:32.664Z,28.57
2018-12-13T11:25:31.842Z,29.05
2018-12-13T11:26:32.679Z,28.96
2018-12-13T11:27:31.820Z,28.45
2018-12-13T11:28:32.677Z,28.55
2018-12-13T11:29:32.666Z,27.64
2018-12-13T11:30:31.772Z,28.75
2018-12-13T11:31:32.675Z,28.24
2018-12-13T11:32:31.757Z,27.94
2018-12-13T11:33:31.751Z,28.04
2018-12-13T11:34:32.662Z,28.14
2018-12-13T11:35:31.718Z,28.14
2018-12-13T11:36:31.736Z,28.24
2018-12-13T11:37:31.713Z,27.84
2018-12-13T11:38:31.684Z,28.03
2018-12-13T11:39:31.672Z,27.55
2018-12-13T11:40:31.664Z,27.84
2018-12-13T11:41:31.667Z,27.13
2018-12-13T11:42:32.177Z,26.94
2018-12-13T11:43:31.644Z,26.73
2018-12-13T11:44:31.615Z,27.73
2018-12-13T11:45:31.610Z,27.03
2018-12-13T11:46:32.173Z,27.83
2018-12-13T11:47:31.615Z,27.03
2018-12-13T11:48:32.173Z,26.83
2018-12-13T11:49:31.563Z,27.24
2018-12-13T11:50:31.550Z,27.55
2018-12-13T11:51:31.536Z,27.34
2018-12-13T11:52:31.540Z,27.63
2018-12-13T11:53:31.532Z,27.53
2018-12-13T11:54:31.529Z,26.75
2018-12-13T11:55:31.500Z,26.43
2018-12-13T11:56:31.482Z,27.03
2018-12-13T11:57:31.491Z,27.53
2018-12-13T11:58:32.173Z,27.23
2018-12-13T11:59:32.180Z,27.55
2018-12-13T12:00:31.448Z,27.34
2018-12-13T12:01:31.435Z,27.04
2018-12-13T12:02:31.695Z,26.75
2018-12-13T12:03:31.406Z,26.84
2018-12-13T12:04:31.394Z,26.94
2018-12-13T12:05:31.384Z,27.14
2018-12-13T12:06:31.372Z,26.84
2018-12-13T12:07:31.375Z,27.64
2018-12-13T12:08:31.355Z,27.44
2018-12-13T12:09:32.168Z,27.03
2018-12-13T12:10:32.176Z,27.43
2018-12-13T12:11:31.318Z,27.23
2018-12-13T12:12:31.318Z,27.33
2018-12-13T12:13:31.298Z,26.83
2018-12-13T12:14:31.284Z,28.42
2018-12-13T12:15:31.394Z,28.44
2018-12-13T12:16:31.261Z,27.34
2018-12-13T12:17:31.287Z,26.93
2018-12-13T12:18:31.272Z,27.13
2018-12-13T12:19:31.231Z,26.93
2018-12-13T12:20:32.165Z,27.33
2018-12-13T12:21:31.207Z,27.53
2018-12-13T12:22:31.215Z,26.33
2018-12-13T12:23:31.189Z,26.75
2018-12-13T12:24:31.174Z,26.73
2018-12-13T12:25:31.168Z,26.25
2018-12-13T12:26:31.153Z,27.23
2018-12-13T12:27:31.732Z,27.04
2018-12-13T12:28:31.668Z,27.24
2018-12-13T12:29:31.145Z,27.34
2018-12-13T12:30:31.702Z,26.94
2018-12-13T12:31:31.690Z,26.64
2018-12-13T12:32:31.102Z,26.64
2018-12-13T12:33:31.673Z,27.34
2018-12-13T12:34:31.681Z,27.14
2018-12-13T12:35:31.056Z,26.94
2018-12-13T12:36:32.144Z,27.34
2018-12-13T12:37:31.048Z,26.45
2018-12-13T12:38:31.073Z,26.94
2018-12-13T12:39:31.019Z,26.34
2018-12-13T12:40:31.011Z,26.45
2018-12-13T12:41:30.993Z,26.94
2018-12-13T12:42:30.993Z,26.64
2018-12-13T12:43:30.967Z,27.15
2018-12-13T12:44:30.958Z,26.56
2018-12-13T12:45:30.948Z,26.96
2018-12-13T12:46:31.775Z,26.35
2018-12-13T12:47:30.944Z,26.56
2018-12-13T12:48:30.919Z,27.45
2018-12-13T12:49:30.933Z,27.45
2018-12-13T12:50:30.899Z,26.45
2018-12-13T12:51:30.894Z,26.34
2018-12-13T12:52:31.182Z,27.34